Delta — PDPC — position and weather

sailwx.info

Track history (hours):
 
Tides and Currents Weather Stations Pressure Air Temp Water Temp Dewpoint Dewpoint Depression Visibility Wind Speed Wind Dir Waves Ship Positions

Oceanographic research ship Delta (Netherlands)

Detailed information on ship capabilities available from University of Delaware's Ocean Information Center.

Last reported at 2017-Jul-20 18:03 UTC. Time now 2017-Jul-20 18:37 UTC.
Position N 51°27' E 004°01'.

MMSI: 244696464.

Date/timePositionNaut miles runAvg speedWind from/ knotsBaromVisibWave heightAir tempDewpointWater temp
2017-Jul-20 18:03N 51°27' E 004°01'0 0.0
2017-Jul-20 18:00N 51°27' E 004°01'0 0.0
2017-Jul-20 17:24N 51°27' E 004°01'0 0.0
2017-Jul-20 15:15N 51°27' E 004°01'0 0.0
2017-Jul-20 14:48N 51°27' E 004°01'0 0.0
2017-Jul-20 14:01N 51°27' E 004°01'1 1.8
2017-Jul-20 13:29N 51°28' E 004°00'3 6.7
2017-Jul-20 13:00N 51°31' E 004°01'4 7.1
2017-Jul-20 12:29N 51°33' E 003°56'3 2.2
2017-Jul-20 11:17N 51°33' E 003°51'4 6.3
2017-Jul-20 10:43N 51°33' E 003°46'3 2.0
2017-Jul-20 09:23N 51°33' E 003°50'1 2.2
2017-Jul-20 08:47N 51°33' E 003°52'2 5.5
2017-Jul-20 08:26N 51°33' E 003°55'5 6.1
2017-Jul-20 07:32N 51°37' E 004°02'0 7.6
2017-Jul-20 07:30N 51°37' E 004°02'9 0.5
2017-Jul-19 14:08N 51°45' E 004°01'0 0.0
2017-Jul-19 14:00N 51°45' E 004°01'0 0.0
2017-Jul-19 13:30N 51°45' E 004°01'20 0.4
2017-Jul-17 16:17N 51°27' E 004°14'1 1.9
2017-Jul-17 15:50N 51°26' E 004°14'3 7.8
2017-Jul-17 15:28N 51°24' E 004°15'3 6.6
2017-Jul-17 15:00N 51°21' E 004°18'1 1.6
2017-Jul-17 14:30N 51°21' E 004°18'3 5.3
2017-Jul-17 14:00N 51°23' E 004°15'3 5.8
2017-Jul-17 13:27N 51°26' E 004°14'1 2.1
2017-Jul-17 12:56N 51°27' E 004°14'1 0.6
2017-Jul-17 12:05N 51°28' E 004°14'0 2.0
2017-Jul-17 11:59N 51°28' E 004°13'2 1.5
2017-Jul-17 10:59N 51°29' E 004°13'2 3.4
2017-Jul-17 10:21N 51°31' E 004°11'9 2.2
2017-Jul-17 06:20N 51°40' E 004°11'0 0.0
2017-Jul-17 06:00N 51°40' E 004°11'  
2017-Jul-14 08:35N 51°40' E 004°10'0 0.0
2017-Jul-14 08:30N 51°40' E 004°10'0 0.0
2017-Jul-14 08:00N 51°40' E 004°10'0 0.0
2017-Jul-14 07:30N 51°40' E 004°10'0 0.0
2017-Jul-14 07:00N 51°40' E 004°10'0 0.0
2017-Jul-14 06:30N 51°40' E 004°10'0 0.0
2017-Jul-14 05:59N 51°40' E 004°10'0 0.0
2017-Jul-14 05:30N 51°40' E 004°10'0 0.0
2017-Jul-14 05:00N 51°40' E 004°10'0 0.0
2017-Jul-14 04:26N 51°40' E 004°10'0 0.0
2017-Jul-14 03:58N 51°40' E 004°10'0 0.0
2017-Jul-14 00:08N 51°40' E 004°10'0 0.0
2017-Jul-14 00:00N 51°40' E 004°10'0 0.0
2017-Jul-13 23:30N 51°40' E 004°10'0 0.0
2017-Jul-13 23:00N 51°40' E 004°10'0 0.0
2017-Jul-13 22:30N 51°40' E 004°10'0 0.0
2017-Jul-13 22:00N 51°40' E 004°10'0 0.0
2017-Jul-13 20:31N 51°40' E 004°10'0 0.0
2017-Jul-13 20:30N 51°40' E 004°10'0 0.0
2017-Jul-13 20:00N 51°40' E 004°10'0 0.0
2017-Jul-13 19:08N 51°40' E 004°10'0 0.0
2017-Jul-13 19:00N 51°40' E 004°10'9 1.5
2017-Jul-13 13:06N 51°36' E 003°57'1 8.3
2017-Jul-13 13:00N 51°36' E 003°56'3 6.4
2017-Jul-13 12:28N 51°33' E 003°54'2 1.4
2017-Jul-13 11:20N 51°33' E 003°52'3 5.3
2017-Jul-13 10:49N 51°33' E 003°47'3 7.1
2017-Jul-13 10:28N 51°32' E 003°43'2 2.9
2017-Jul-13 09:45N 51°32' E 003°40'1 4.9
2017-Jul-13 09:29N 51°31' E 003°39'2 4.1
2017-Jul-13 08:58N 51°30' E 003°37'2 4.2
2017-Jul-13 08:28N 51°28' E 003°36'1 2.0
2017-Jul-13 07:59N 51°27' E 003°35'0 0.6
2017-Jul-13 07:26N 51°27' E 003°36'0 0.0
2017-Jul-13 06:08N 51°27' E 003°36'0 0.0
2017-Jul-13 05:59N 51°27' E 003°36'0 0.0
2017-Jul-13 05:29N 51°27' E 003°36'0 0.0
2017-Jul-13 04:47N 51°27' E 003°36'0 0.0
2017-Jul-13 04:29N 51°27' E 003°36'0 0.0
2017-Jul-13 03:02N 51°27' E 003°36'0 0.0
2017-Jul-13 02:50N 51°27' E 003°36'0 0.0
2017-Jul-13 02:29N 51°27' E 003°36'0 0.0
2017-Jul-13 01:17N 51°27' E 003°36'0 0.0
2017-Jul-13 00:59N 51°27' E 003°36'0 0.0
2017-Jul-13 00:29N 51°27' E 003°36'0 0.0
2017-Jul-12 23:50N 51°27' E 003°36'0 0.0
2017-Jul-12 22:29N 51°27' E 003°36'0 0.0
2017-Jul-12 21:50N 51°27' E 003°36'0 0.0
2017-Jul-12 21:11N 51°27' E 003°36'0 0.0
2017-Jul-12 20:53N 51°27' E 003°36'0 0.0
2017-Jul-12 19:50N 51°27' E 003°36'0 0.0
2017-Jul-12 19:29N 51°27' E 003°36'0 0.0
2017-Jul-12 18:47N 51°27' E 003°36'0 0.0
2017-Jul-12 18:05N 51°27' E 003°36'0 0.0
2017-Jul-12 17:59N 51°27' E 003°36'0 0.0
2017-Jul-12 17:02N 51°27' E 003°36'0 0.0
2017-Jul-12 16:41N 51°27' E 003°36'0 0.0
2017-Jul-12 15:38N 51°27' E 003°36'0 0.0
2017-Jul-12 15:23N 51°27' E 003°36'0 0.0
2017-Jul-12 14:59N 51°27' E 003°36'4 3.7
2017-Jul-12 14:00N 51°25' E 003°40'3 5.8
2017-Jul-12 13:29N 51°23' E 003°44'3 5.9
2017-Jul-12 13:00N 51°21' E 003°48'1 2.2
2017-Jul-12 12:24N 51°20' E 003°49'0 1.1
2017-Jul-12 12:00N 51°20' E 003°49'4 7.2
2017-Jul-12 11:30N 51°16' E 003°50'4 7.0
2017-Jul-12 10:58N 51°13' E 003°48'2 3.9
2017-Jul-12 10:31N 51°11' E 003°48'4 7.5
2017-Jul-12 10:01N 51°08' E 003°46'2 4.1
2017-Jul-12 09:31N 51°06' E 003°44'3 5.6
2017-Jul-12 09:01N 51°08' E 003°46'3 5.4
2017-Jul-12 08:30N 51°11' E 003°48'3 5.2
2017-Jul-12 08:00N 51°13' E 003°48'3 5.4
2017-Jul-12 07:30N 51°16' E 003°50'2 3.7
2017-Jul-12 07:00N 51°18' E 003°50'2 3.0
2017-Jul-12 06:30N 51°19' E 003°49'1 1.7
2017-Jul-12 05:59N 51°20' E 003°49'0 0.0
2017-Jul-12 05:23N 51°20' E 003°49'0 0.0
2017-Jul-12 04:59N 51°20' E 003°49'0 0.0
2017-Jul-12 04:23N 51°20' E 003°49'0 0.0
2017-Jul-12 03:50N 51°20' E 003°49'0 0.0
2017-Jul-12 03:20N 51°20' E 003°49'0 0.0
2017-Jul-12 02:59N 51°20' E 003°49'0 0.0
2017-Jul-12 02:29N 51°20' E 003°49'0 0.0
2017-Jul-12 01:53N 51°20' E 003°49'0 0.0
2017-Jul-12 00:53N 51°20' E 003°49'0 0.0
2017-Jul-12 00:17N 51°20' E 003°49'0 0.0
2017-Jul-11 23:41N 51°20' E 003°49'0 0.0
2017-Jul-11 23:11N 51°20' E 003°49'0 0.0
2017-Jul-11 22:38N 51°20' E 003°49'0 0.0
2017-Jul-11 22:17N 51°20' E 003°49'0 0.0
2017-Jul-11 21:38N 51°20' E 003°49'0 0.0
2017-Jul-11 21:29N 51°20' E 003°49'0 0.0
2017-Jul-11 20:59N 51°20' E 003°49'0 0.0
2017-Jul-11 20:29N 51°20' E 003°49'0 0.0
2017-Jul-11 19:41N 51°20' E 003°49'0 0.0
2017-Jul-11 19:26N 51°20' E 003°49'0 0.0
2017-Jul-11 18:59N 51°20' E 003°49'0 0.2
2017-Jul-11 18:27N 51°20' E 003°49'0 0.7
2017-Jul-11 17:56N 51°20' E 003°49'4 8.5
2017-Jul-11 17:30N 51°22' E 003°54'5 9.8
2017-Jul-11 17:00N 51°26' E 003°59'2 3.2
2017-Jul-11 16:29N 51°27' E 004°01'1 1.6
2017-Jul-11 15:59N 51°28' E 004°00'1 1.7
2017-Jul-11 15:26N 51°27' E 004°01'2 4.7
2017-Jul-11 15:00N 51°25' E 004°02'3 5.2
2017-Jul-11 14:30N 51°24' E 004°05'2 2.8
2017-Jul-11 13:52N 51°24' E 004°08'1 3.5
2017-Jul-11 13:30N 51°24' E 004°06'2 3.2
2017-Jul-11 13:00N 51°23' E 004°08'0 0.4
2017-Jul-11 12:23N 51°23' E 004°08'0 0.2
2017-Jul-11 11:57N 51°23' E 004°08'0 0.6
2017-Jul-11 11:30N 51°22' E 004°08'3 5.6
2017-Jul-11 11:00N 51°23' E 004°13'3 4.1
2017-Jul-11 10:22N 51°21' E 004°15'0 0.0
2017-Jul-11 09:19N 51°21' E 004°15'0 0.1
2017-Jul-11 08:58N 51°21' E 004°15'0 0.0
2017-Jul-11 08:28N 51°21' E 004°15'0 0.0
2017-Jul-11 07:58N 51°21' E 004°15'0 0.1
2017-Jul-11 07:26N 51°21' E 004°15'2 5.2
2017-Jul-11 07:00N 51°23' E 004°13'3 5.1
2017-Jul-11 06:30N 51°22' E 004°09'2 4.7
2017-Jul-11 06:00N 51°23' E 004°05'3 5.6
2017-Jul-11 05:24N 51°26' E 004°02'2 1.3
2017-Jul-11 04:14N 51°27' E 004°01'0 0.0
2017-Jul-11 03:59N 51°27' E 004°01'0 0.0
2017-Jul-11 02:41N 51°27' E 004°01'0 0.0
2017-Jul-11 02:17N 51°27' E 004°01'0 0.0
2017-Jul-11 00:53N 51°27' E 004°01'0 0.0
2017-Jul-10 22:08N 51°27' E 004°01'0 0.0
2017-Jul-10 21:59N 51°27' E 004°01'0 0.0
2017-Jul-10 21:26N 51°27' E 004°01'0 0.0
2017-Jul-10 20:59N 51°27' E 004°01'0 0.0
2017-Jul-10 18:29N 51°27' E 004°01'  
Track history (hours):
 
Tides and Currents Weather Stations Pressure Air Temp Water Temp Dewpoint Dewpoint Depression Visibility Wind Speed Wind Dir Waves Ship Positions

Oceanographic research ship Delta (Netherlands)

Detailed information on ship capabilities available from University of Delaware's Ocean Information Center.

Last reported at 2017-Jul-20 18:03 UTC. Time now 2017-Jul-20 18:37 UTC.
Position N 51°27' E 004°01'.

MMSI: 244696464.

Date/timePositionNaut miles runAvg speedWind from/ knotsBaromVisibWave heightAir tempDewpointWater temp
2017-Jul-20 18:03N 51°27' E 004°01'0 0.0
2017-Jul-20 18:00N 51°27' E 004°01'0 0.0
2017-Jul-20 17:24N 51°27' E 004°01'0 0.0
2017-Jul-20 15:15N 51°27' E 004°01'0 0.0
2017-Jul-20 14:48N 51°27' E 004°01'0 0.0
2017-Jul-20 14:01N 51°27' E 004°01'1 1.8
2017-Jul-20 13:29N 51°28' E 004°00'3 6.7
2017-Jul-20 13:00N 51°31' E 004°01'4 7.1
2017-Jul-20 12:29N 51°33' E 003°56'3 2.2
2017-Jul-20 11:17N 51°33' E 003°51'4 6.3
2017-Jul-20 10:43N 51°33' E 003°46'3 2.0
2017-Jul-20 09:23N 51°33' E 003°50'1 2.2
2017-Jul-20 08:47N 51°33' E 003°52'2 5.5
2017-Jul-20 08:26N 51°33' E 003°55'5 6.1
2017-Jul-20 07:32N 51°37' E 004°02'0 7.6
2017-Jul-20 07:30N 51°37' E 004°02'9 0.5
2017-Jul-19 14:08N 51°45' E 004°01'0 0.0
2017-Jul-19 14:00N 51°45' E 004°01'0 0.0
2017-Jul-19 13:30N 51°45' E 004°01'20 0.4
2017-Jul-17 16:17N 51°27' E 004°14'1 1.9
2017-Jul-17 15:50N 51°26' E 004°14'3 7.8
2017-Jul-17 15:28N 51°24' E 004°15'3 6.6
2017-Jul-17 15:00N 51°21' E 004°18'1 1.6
2017-Jul-17 14:30N 51°21' E 004°18'3 5.3
2017-Jul-17 14:00N 51°23' E 004°15'3 5.8
2017-Jul-17 13:27N 51°26' E 004°14'1 2.1
2017-Jul-17 12:56N 51°27' E 004°14'1 0.6
2017-Jul-17 12:05N 51°28' E 004°14'0 2.0
2017-Jul-17 11:59N 51°28' E 004°13'2 1.5
2017-Jul-17 10:59N 51°29' E 004°13'2 3.4
2017-Jul-17 10:21N 51°31' E 004°11'9 2.2
2017-Jul-17 06:20N 51°40' E 004°11'0 0.0
2017-Jul-17 06:00N 51°40' E 004°11'  
2017-Jul-14 08:35N 51°40' E 004°10'0 0.0
2017-Jul-14 08:30N 51°40' E 004°10'0 0.0
2017-Jul-14 08:00N 51°40' E 004°10'0 0.0
2017-Jul-14 07:30N 51°40' E 004°10'0 0.0
2017-Jul-14 07:00N 51°40' E 004°10'0 0.0
2017-Jul-14 06:30N 51°40' E 004°10'0 0.0
2017-Jul-14 05:59N 51°40' E 004°10'0 0.0
2017-Jul-14 05:30N 51°40' E 004°10'0 0.0
2017-Jul-14 05:00N 51°40' E 004°10'0 0.0
2017-Jul-14 04:26N 51°40' E 004°10'0 0.0
2017-Jul-14 03:58N 51°40' E 004°10'0 0.0
2017-Jul-14 00:08N 51°40' E 004°10'0 0.0
2017-Jul-14 00:00N 51°40' E 004°10'0 0.0
2017-Jul-13 23:30N 51°40' E 004°10'0 0.0
2017-Jul-13 23:00N 51°40' E 004°10'0 0.0
2017-Jul-13 22:30N 51°40' E 004°10'0 0.0
2017-Jul-13 22:00N 51°40' E 004°10'0 0.0
2017-Jul-13 20:31N 51°40' E 004°10'0 0.0
2017-Jul-13 20:30N 51°40' E 004°10'0 0.0
2017-Jul-13 20:00N 51°40' E 004°10'0 0.0
2017-Jul-13 19:08N 51°40' E 004°10'0 0.0
2017-Jul-13 19:00N 51°40' E 004°10'9 1.5
2017-Jul-13 13:06N 51°36' E 003°57'1 8.3
2017-Jul-13 13:00N 51°36' E 003°56'3 6.4
2017-Jul-13 12:28N 51°33' E 003°54'2 1.4
2017-Jul-13 11:20N 51°33' E 003°52'3 5.3
2017-Jul-13 10:49N 51°33' E 003°47'3 7.1
2017-Jul-13 10:28N 51°32' E 003°43'2 2.9
2017-Jul-13 09:45N 51°32' E 003°40'1 4.9
2017-Jul-13 09:29N 51°31' E 003°39'2 4.1
2017-Jul-13 08:58N 51°30' E 003°37'2 4.2
2017-Jul-13 08:28N 51°28' E 003°36'1 2.0
2017-Jul-13 07:59N 51°27' E 003°35'0 0.6
2017-Jul-13 07:26N 51°27' E 003°36'0 0.0
2017-Jul-13 06:08N 51°27' E 003°36'0 0.0
2017-Jul-13 05:59N 51°27' E 003°36'0 0.0
2017-Jul-13 05:29N 51°27' E 003°36'0 0.0
2017-Jul-13 04:47N 51°27' E 003°36'0 0.0
2017-Jul-13 04:29N 51°27' E 003°36'0 0.0
2017-Jul-13 03:02N 51°27' E 003°36'0 0.0
2017-Jul-13 02:50N 51°27' E 003°36'0 0.0
2017-Jul-13 02:29N 51°27' E 003°36'0 0.0
2017-Jul-13 01:17N 51°27' E 003°36'0 0.0
2017-Jul-13 00:59N 51°27' E 003°36'0 0.0
2017-Jul-13 00:29N 51°27' E 003°36'0 0.0
2017-Jul-12 23:50N 51°27' E 003°36'0 0.0
2017-Jul-12 22:29N 51°27' E 003°36'0 0.0
2017-Jul-12 21:50N 51°27' E 003°36'0 0.0
2017-Jul-12 21:11N 51°27' E 003°36'0 0.0
2017-Jul-12 20:53N 51°27' E 003°36'0 0.0
2017-Jul-12 19:50N 51°27' E 003°36'0 0.0
2017-Jul-12 19:29N 51°27' E 003°36'0 0.0
2017-Jul-12 18:47N 51°27' E 003°36'0 0.0
2017-Jul-12 18:05N 51°27' E 003°36'0 0.0
2017-Jul-12 17:59N 51°27' E 003°36'0 0.0
2017-Jul-12 17:02N 51°27' E 003°36'0 0.0
2017-Jul-12 16:41N 51°27' E 003°36'0 0.0
2017-Jul-12 15:38N 51°27' E 003°36'0 0.0
2017-Jul-12 15:23N 51°27' E 003°36'0 0.0
2017-Jul-12 14:59N 51°27' E 003°36'4 3.7
2017-Jul-12 14:00N 51°25' E 003°40'3 5.8
2017-Jul-12 13:29N 51°23' E 003°44'3 5.9
2017-Jul-12 13:00N 51°21' E 003°48'1 2.2
2017-Jul-12 12:24N 51°20' E 003°49'0 1.1
2017-Jul-12 12:00N 51°20' E 003°49'4 7.2
2017-Jul-12 11:30N 51°16' E 003°50'4 7.0
2017-Jul-12 10:58N 51°13' E 003°48'2 3.9
2017-Jul-12 10:31N 51°11' E 003°48'4 7.5
2017-Jul-12 10:01N 51°08' E 003°46'2 4.1
2017-Jul-12 09:31N 51°06' E 003°44'3 5.6
2017-Jul-12 09:01N 51°08' E 003°46'3 5.4
2017-Jul-12 08:30N 51°11' E 003°48'3 5.2
2017-Jul-12 08:00N 51°13' E 003°48'3 5.4
2017-Jul-12 07:30N 51°16' E 003°50'2 3.7
2017-Jul-12 07:00N 51°18' E 003°50'2 3.0
2017-Jul-12 06:30N 51°19' E 003°49'1 1.7
2017-Jul-12 05:59N 51°20' E 003°49'0 0.0
2017-Jul-12 05:23N 51°20' E 003°49'0 0.0
2017-Jul-12 04:59N 51°20' E 003°49'0 0.0
2017-Jul-12 04:23N 51°20' E 003°49'0 0.0
2017-Jul-12 03:50N 51°20' E 003°49'0 0.0
2017-Jul-12 03:20N 51°20' E 003°49'0 0.0
2017-Jul-12 02:59N 51°20' E 003°49'0 0.0
2017-Jul-12 02:29N 51°20' E 003°49'0 0.0
2017-Jul-12 01:53N 51°20' E 003°49'0 0.0
2017-Jul-12 00:53N 51°20' E 003°49'0 0.0
2017-Jul-12 00:17N 51°20' E 003°49'0 0.0
2017-Jul-11 23:41N 51°20' E 003°49'0 0.0
2017-Jul-11 23:11N 51°20' E 003°49'0 0.0
2017-Jul-11 22:38N 51°20' E 003°49'0 0.0
2017-Jul-11 22:17N 51°20' E 003°49'0 0.0
2017-Jul-11 21:38N 51°20' E 003°49'0 0.0
2017-Jul-11 21:29N 51°20' E 003°49'0 0.0
2017-Jul-11 20:59N 51°20' E 003°49'0 0.0
2017-Jul-11 20:29N 51°20' E 003°49'0 0.0
2017-Jul-11 19:41N 51°20' E 003°49'0 0.0
2017-Jul-11 19:26N 51°20' E 003°49'0 0.0
2017-Jul-11 18:59N 51°20' E 003°49'0 0.2
2017-Jul-11 18:27N 51°20' E 003°49'0 0.7
2017-Jul-11 17:56N 51°20' E 003°49'4 8.5
2017-Jul-11 17:30N 51°22' E 003°54'5 9.8
2017-Jul-11 17:00N 51°26' E 003°59'2 3.2
2017-Jul-11 16:29N 51°27' E 004°01'1 1.6
2017-Jul-11 15:59N 51°28' E 004°00'1 1.7
2017-Jul-11 15:26N 51°27' E 004°01'2 4.7
2017-Jul-11 15:00N 51°25' E 004°02'3 5.2
2017-Jul-11 14:30N 51°24' E 004°05'2 2.8
2017-Jul-11 13:52N 51°24' E 004°08'1 3.5
2017-Jul-11 13:30N 51°24' E 004°06'2 3.2
2017-Jul-11 13:00N 51°23' E 004°08'0 0.4
2017-Jul-11 12:23N 51°23' E 004°08'0 0.2
2017-Jul-11 11:57N 51°23' E 004°08'0 0.6
2017-Jul-11 11:30N 51°22' E 004°08'3 5.6
2017-Jul-11 11:00N 51°23' E 004°13'3 4.1
2017-Jul-11 10:22N 51°21' E 004°15'0 0.0
2017-Jul-11 09:19N 51°21' E 004°15'0 0.1
2017-Jul-11 08:58N 51°21' E 004°15'0 0.0
2017-Jul-11 08:28N 51°21' E 004°15'0 0.0
2017-Jul-11 07:58N 51°21' E 004°15'0 0.1
2017-Jul-11 07:26N 51°21' E 004°15'2 5.2
2017-Jul-11 07:00N 51°23' E 004°13'3 5.1
2017-Jul-11 06:30N 51°22' E 004°09'2 4.7
2017-Jul-11 06:00N 51°23' E 004°05'3 5.6
2017-Jul-11 05:24N 51°26' E 004°02'2 1.3
2017-Jul-11 04:14N 51°27' E 004°01'0 0.0
2017-Jul-11 03:59N 51°27' E 004°01'0 0.0
2017-Jul-11 02:41N 51°27' E 004°01'0 0.0
2017-Jul-11 02:17N 51°27' E 004°01'0 0.0
2017-Jul-11 00:53N 51°27' E 004°01'0 0.0
2017-Jul-10 22:08N 51°27' E 004°01'0 0.0
2017-Jul-10 21:59N 51°27' E 004°01'0 0.0
2017-Jul-10 21:26N 51°27' E 004°01'0 0.0
2017-Jul-10 20:59N 51°27' E 004°01'0 0.0
2017-Jul-10 18:29N 51°27' E 004°01'  

Dump ship's entire track history